Time;durP1;ratioP1;P1;durP2;ratioP2;P2;SDS_P1;SDS_P2;PMS_P1;PMS_P2;Temp;Humidity;BMP_temperature;BMP_pressure;BME280_temperature;BME280_humidity;BME280_pressure;Samples;Min_cycle;Max_cycle;Signal;HPM_P1;HPM_P2
2021/06/03 00:00:15;;;;;;;0.08;0.08;;;23.60;63.90;;;;;;4174610;28;20416;-49
2021/06/03 00:02:38;;;;;;;0.75;0.75;;;23.60;64.00;;;;;;4171385;28;20143;-46
2021/06/03 00:05:00;;;;;;;0.30;0.30;;;23.50;64.00;;;;;;4174374;28;20461;-49
2021/06/03 00:07:21;;;;;;;1.98;0.95;;;23.50;64.00;;;;;;4174905;28;20509;-49
2021/06/03 00:09:43;;;;;;;0.13;0.13;;;23.50;64.10;;;;;;4174432;28;20040;-45
2021/06/03 00:12:06;;;;;;;0.57;0.57;;;23.50;64.10;;;;;;4174847;28;20730;-46
2021/06/03 00:14:28;;;;;;;0.38;0.38;;;23.50;64.20;;;;;;4158725;28;20053;-47
2021/06/03 00:16:50;;;;;;;0.10;0.10;;;23.50;64.20;;;;;;4157961;28;20053;-46
2021/06/03 00:19:13;;;;;;;0.00;0.00;;;23.50;64.20;;;;;;4173470;28;20391;-45
2021/06/03 00:21:36;;;;;;;0.03;0.03;;;23.40;64.20;;;;;;4174173;28;20053;-47
2021/06/03 00:23:57;;;;;;;0.60;0.60;;;23.50;64.30;;;;;;4174935;28;20049;-46
2021/06/03 00:26:19;;;;;;;0.52;0.52;;;23.40;64.30;;;;;;4174690;28;20053;-45
2021/06/03 00:28:40;;;;;;;0.35;0.35;;;23.50;64.50;;;;;;4174803;28;20056;-45
2021/06/03 00:31:02;;;;;;;0.45;0.45;;;23.40;64.40;;;;;;4174328;28;20060;-46
2021/06/03 00:33:24;;;;;;;0.13;0.13;;;23.40;64.40;;;;;;4173593;28;20111;-45
2021/06/03 00:35:47;;;;;;;0.28;0.28;;;23.40;64.50;;;;;;4174525;28;20059;-50
2021/06/03 00:38:10;;;;;;;0.00;0.00;;;23.40;64.50;;;;;;4174505;28;20088;-46
2021/06/03 00:40:32;;;;;;;0.20;0.20;;;23.40;64.50;;;;;;4175375;28;20053;-45
2021/06/03 00:42:55;;;;;;;0.10;0.10;;;23.40;64.60;;;;;;4161356;28;20132;-45
2021/06/03 00:45:19;;;;;;;0.10;0.10;;;23.30;64.60;;;;;;4161432;28;20637;-45
2021/06/03 00:47:41;;;;;;;0.30;0.30;;;23.30;64.70;;;;;;4166172;28;20064;-46
2021/06/03 00:50:06;;;;;;;0.45;0.45;;;23.30;64.70;;;;;;4177510;28;20060;-46
2021/06/03 00:52:29;;;;;;;0.40;0.40;;;23.30;64.70;;;;;;4176532;28;20057;-46
2021/06/03 00:54:51;;;;;;;1.08;0.80;;;23.30;64.80;;;;;;4178171;28;20050;-47
2021/06/03 00:57:13;;;;;;;0.32;0.32;;;23.30;64.90;;;;;;4177730;28;20053;-49
2021/06/03 00:59:34;;;;;;;0.50;0.50;;;23.30;64.90;;;;;;4176278;28;20056;-46
2021/06/03 01:01:56;;;;;;;0.05;0.05;;;23.30;64.90;;;;;;4171307;28;20416;-46
2021/06/03 01:04:22;;;;;;;0.70;0.70;;;23.30;64.90;;;;;;4177103;28;20080;-47
2021/06/03 01:06:44;;;;;;;1.27;0.57;;;23.30;65.00;;;;;;4177548;28;20045;-47
2021/06/03 01:09:13;;;;;;;0.22;0.22;;;23.20;64.90;;;;;;4177219;28;20068;-46
2021/06/03 01:11:39;;;;;;;0.00;0.00;;;23.20;65.00;;;;;;4175179;28;20051;-46
2021/06/03 01:14:05;;;;;;;0.73;0.73;;;23.30;65.00;;;;;;4177491;28;20483;-48
2021/06/03 01:16:28;;;;;;;0.20;0.20;;;23.20;65.10;;;;;;4174354;28;20059;-48
2021/06/03 01:18:53;;;;;;;0.82;0.43;;;23.30;65.20;;;;;;4142855;28;20062;-47
2021/06/03 01:21:24;;;;;;;0.50;0.50;;;23.20;65.10;;;;;;4166809;28;20049;-47
2021/06/03 01:23:56;;;;;;;1.65;1.55;;;23.20;65.10;;;;;;4158822;28;20057;-49
2021/06/03 01:26:21;;;;;;;0.17;0.17;;;23.20;65.20;;;;;;4159180;28;20093;-45
2021/06/03 01:28:44;;;;;;;0.82;0.82;;;23.20;66.00;;;;;;4160812;28;20147;-47
2021/06/03 01:31:06;;;;;;;0.00;0.00;;;23.20;65.20;;;;;;4160410;28;20099;-48
2021/06/03 01:33:32;;;;;;;0.20;0.20;;;23.20;65.20;;;;;;4160377;28;20511;-47
2021/06/03 01:35:57;;;;;;;0.80;0.75;;;23.20;65.30;;;;;;4160567;28;20797;-45
2021/06/03 01:38:26;;;;;;;0.63;0.63;;;23.20;65.40;;;;;;4159166;28;20100;-46
2021/06/03 01:40:50;;;;;;;0.43;0.43;;;23.20;65.30;;;;;;4159128;28;20041;-45
2021/06/03 01:43:15;;;;;;;0.05;0.05;;;23.20;65.30;;;;;;4158607;28;20103;-46
2021/06/03 01:45:37;;;;;;;8.00;0.90;;;23.10;65.30;;;;;;4161063;28;20088;-48
2021/06/03 01:48:00;;;;;;;0.00;0.00;;;23.20;65.40;;;;;;4172784;28;20075;-50
2021/06/03 01:50:24;;;;;;;0.15;0.15;;;23.20;65.50;;;;;;4175336;28;20055;-45
2021/06/03 01:52:50;;;;;;;0.75;0.75;;;23.20;66.40;;;;;;4174828;28;20164;-46
2021/06/03 01:55:15;;;;;;;0.52;0.52;;;23.10;65.40;;;;;;4176759;28;20044;-46
2021/06/03 01:57:38;;;;;;;1.67;0.63;;;23.10;65.40;;;;;;4175226;28;20052;-48
2021/06/03 02:00:12;;;;;;;1.10;0.93;;;23.10;65.40;;;;;;4170417;28;20056;-46
2021/06/03 02:02:46;;;;;;;2.65;1.05;;;23.10;65.40;;;;;;4175061;28;20111;-46
2021/06/03 02:05:13;;;;;;;0.10;0.10;;;23.10;65.50;;;;;;4175337;28;20048;-48
2021/06/03 02:07:35;;;;;;;0.20;0.20;;;23.10;65.40;;;;;;4174350;28;20573;-46
2021/06/03 02:09:58;;;;;;;0.03;0.03;;;23.10;65.60;;;;;;4175105;28;20510;-45
2021/06/03 02:12:20;;;;;;;0.30;0.30;;;23.10;65.60;;;;;;4170515;28;20480;-48
2021/06/03 02:14:43;;;;;;;0.68;0.68;;;23.10;65.60;;;;;;4157495;28;20050;-49
2021/06/03 02:17:11;;;;;;;0.52;0.52;;;23.10;65.60;;;;;;4165072;28;20132;-48
2021/06/03 02:19:45;;;;;;;0.65;0.65;;;23.00;65.70;;;;;;4173818;28;20152;-45
2021/06/03 02:22:08;;;;;;;0.13;0.13;;;23.10;65.70;;;;;;4173999;28;20052;-44
2021/06/03 02:24:32;;;;;;;0.13;0.13;;;23.10;65.80;;;;;;4173860;28;20075;-45
2021/06/03 02:26:54;;;;;;;0.47;0.47;;;23.10;65.80;;;;;;4175448;28;20120;-45
2021/06/03 02:29:16;;;;;;;0.30;0.30;;;23.10;66.70;;;;;;4173803;28;20462;-44
2021/06/03 02:31:55;;;;;;;0.45;0.45;;;23.10;65.90;;;;;;4173278;28;20103;-45
2021/06/03 02:34:21;;;;;;;0.10;0.10;;;23.10;65.90;;;;;;4173647;28;20408;-50
2021/06/03 02:36:43;;;;;;;0.32;0.32;;;23.00;65.80;;;;;;4173766;28;20099;-47
2021/06/03 02:39:06;;;;;;;0.80;0.70;;;23.00;65.90;;;;;;4175022;28;20056;-47
2021/06/03 02:41:29;;;;;;;0.93;0.70;;;23.00;65.90;;;;;;4172195;28;20144;-46
2021/06/03 02:43:52;;;;;;;0.00;0.00;;;23.00;65.90;;;;;;4171069;28;20064;-48
2021/06/03 02:46:17;;;;;;;3.70;1.95;;;23.00;66.00;;;;;;4169805;28;20083;-45
2021/06/03 02:48:42;;;;;;;0.30;0.30;;;23.00;66.00;;;;;;4173669;28;20044;-48
2021/06/03 02:51:05;;;;;;;0.32;0.32;;;23.00;66.00;;;;;;4173937;28;20450;-47
2021/06/03 02:53:27;;;;;;;0.20;0.20;;;23.00;66.10;;;;;;4172023;28;20095;-49
2021/06/03 02:55:51;;;;;;;0.00;0.00;;;23.00;66.10;;;;;;4172280;28;20110;-45
2021/06/03 02:58:13;;;;;;;0.30;0.30;;;23.00;66.10;;;;;;4172475;28;20060;-46
2021/06/03 03:00:40;;;;;;;0.30;0.30;;;23.00;66.10;;;;;;4171501;28;20048;-49
2021/06/03 03:03:04;;;;;;;1.98;0.43;;;23.00;66.10;;;;;;4173669;28;20052;-45
2021/06/03 03:05:41;;;;;;;0.55;0.55;;;23.00;66.10;;;;;;4239375;27;20400;-46
2021/06/03 03:08:08;;;;;;;;;;;23.00;66.20;;;;;;4221245;27;20058;-46
2021/06/03 03:10:33;;;;;;;0.00;0.00;;;23.00;66.30;;;;;;4222209;28;19930;-49
2021/06/03 03:12:57;;;;;;;0.43;0.43;;;23.00;66.20;;;;;;4222097;28;20047;-46
2021/06/03 03:15:20;;;;;;;0.20;0.20;;;23.00;66.30;;;;;;4221215;28;20543;-48
2021/06/03 03:17:44;;;;;;;0.05;0.05;;;23.00;66.30;;;;;;4221696;28;20048;-53
2021/06/03 03:20:07;;;;;;;0.50;0.50;;;22.90;66.30;;;;;;4221954;28;20087;-49
2021/06/03 03:22:46;;;;;;;0.20;0.20;;;22.90;66.40;;;;;;4221073;28;20100;-46
2021/06/03 03:25:10;;;;;;;0.98;0.45;;;23.00;67.30;;;;;;4234597;27;20536;-47
2021/06/03 03:27:32;;;;;;;0.32;0.32;;;23.00;67.30;;;;;;4222133;28;20044;-47
2021/06/03 03:29:54;;;;;;;0.03;0.03;;;23.00;67.50;;;;;;4220855;28;20094;-48
2021/06/03 03:32:16;;;;;;;0.20;0.20;;;22.90;67.90;;;;;;4220580;28;20071;-47
2021/06/03 03:34:38;;;;;;;0.00;0.00;;;23.00;68.20;;;;;;4222075;28;20055;-50
2021/06/03 03:37:00;;;;;;;0.00;0.00;;;23.00;68.20;;;;;;4222128;28;20044;-49
2021/06/03 03:39:26;;;;;;;0.05;0.05;;;23.00;69.10;;;;;;4220630;28;20074;-47
2021/06/03 03:41:48;;;;;;;0.10;0.10;;;23.00;68.30;;;;;;4207971;28;20052;-48
2021/06/03 03:44:09;;;;;;;0.22;0.22;;;23.00;68.30;;;;;;4205077;28;20056;-48
2021/06/03 03:46:33;;;;;;;0.40;0.40;;;22.90;68.30;;;;;;4208403;28;20096;-47
2021/06/03 03:48:57;;;;;;;0.10;0.10;;;23.00;68.40;;;;;;4220551;28;20056;-51
2021/06/03 03:51:19;;;;;;;0.63;0.63;;;23.00;68.40;;;;;;4219936;28;20085;-49
2021/06/03 03:53:43;;;;;;;0.00;0.00;;;23.00;68.40;;;;;;4220074;28;20109;-46
2021/06/03 03:56:12;;;;;;;0.00;0.00;;;23.00;68.40;;;;;;4221976;28;20047;-47
2021/06/03 03:58:39;;;;;;;0.45;0.45;;;23.00;68.30;;;;;;4220411;28;20051;-48
2021/06/03 04:01:02;;;;;;;1.55;0.90;;;23.00;68.40;;;;;;4220812;28;20044;-49
2021/06/03 04:03:25;;;;;;;0.08;0.08;;;23.00;68.30;;;;;;4220933;28;20055;-49
2021/06/03 04:05:54;;;;;;;0.10;0.10;;;23.00;68.30;;;;;;4219711;28;20513;-46
2021/06/03 04:08:18;;;;;;;0.15;0.15;;;23.00;68.30;;;;;;4221434;28;20142;-46
2021/06/03 04:10:40;;;;;;;0.10;0.10;;;23.00;68.30;;;;;;4221489;28;20498;-49
2021/06/03 04:13:03;;;;;;;0.00;0.00;;;23.00;68.30;;;;;;4221054;28;20052;-49
2021/06/03 04:15:31;;;;;;;0.32;0.32;;;23.00;68.20;;;;;;4217316;28;20063;-46
2021/06/03 04:17:54;;;;;;;0.65;0.20;;;23.00;68.20;;;;;;4210040;28;20048;-47
2021/06/03 04:20:21;;;;;;;0.15;0.15;;;23.00;68.20;;;;;;4209644;28;20500;-47
2021/06/03 04:22:44;;;;;;;0.10;0.10;;;23.00;68.20;;;;;;4208471;28;20422;-49
2021/06/03 04:25:09;;;;;;;0.00;0.00;;;23.00;68.20;;;;;;4208505;28;20087;-46
2021/06/03 04:27:31;;;;;;;0.00;0.00;;;23.00;68.20;;;;;;4209764;28;20493;-47
2021/06/03 04:29:54;;;;;;;0.52;0.52;;;22.90;68.20;;;;;;4210031;28;20133;-52
2021/06/03 04:32:16;;;;;;;0.00;0.00;;;23.00;68.20;;;;;;4209846;28;20056;-51
2021/06/03 04:34:38;;;;;;;0.25;0.25;;;23.00;68.20;;;;;;4209853;28;20573;-50
2021/06/03 04:37:00;;;;;;;1.15;0.95;;;23.00;68.10;;;;;;4209742;28;20054;-50
2021/06/03 04:39:22;;;;;;;0.10;0.10;;;23.00;68.10;;;;;;4210004;28;20051;-45
2021/06/03 04:41:44;;;;;;;0.00;0.00;;;23.00;68.10;;;;;;4209373;28;20055;-47
2021/06/03 04:44:05;;;;;;;0.10;0.10;;;23.00;68.00;;;;;;4224864;27;20116;-51
2021/06/03 04:46:28;;;;;;;0.00;0.00;;;23.00;68.10;;;;;;4226495;28;20077;-45
2021/06/03 04:48:51;;;;;;;0.20;0.20;;;22.90;68.10;;;;;;4226082;27;20101;-49
2021/06/03 04:51:12;;;;;;;2.13;0.47;;;23.00;68.10;;;;;;4226513;27;20053;-51
2021/06/03 04:53:35;;;;;;;0.10;0.10;;;23.00;68.10;;;;;;4226367;27;20081;-48
2021/06/03 04:55:57;;;;;;;0.30;0.20;;;22.90;68.00;;;;;;4226357;27;20070;-50
2021/06/03 04:58:18;;;;;;;0.08;0.08;;;22.90;68.00;;;;;;4226599;27;20047;-49
2021/06/03 05:00:42;;;;;;;0.00;0.00;;;22.90;68.10;;;;;;4226167;28;20055;-49
2021/06/03 05:03:06;;;;;;;0.15;0.15;;;23.00;69.00;;;;;;4226128;27;20055;-46
2021/06/03 05:05:29;;;;;;;0.55;0.13;;;22.90;68.20;;;;;;4226732;27;20040;-48
2021/06/03 05:07:51;;;;;;;0.32;0.32;;;23.00;68.30;;;;;;4226321;28;20055;-48
2021/06/03 05:10:14;;;;;;;0.17;0.17;;;22.90;68.20;;;;;;4226263;27;20104;-47
2021/06/03 05:12:36;;;;;;;0.00;0.00;;;22.90;68.20;;;;;;4225611;27;20482;-47
2021/06/03 05:14:58;;;;;;;0.47;0.47;;;22.90;68.30;;;;;;4209551;28;20066;-48
2021/06/03 05:17:20;;;;;;;0.55;0.55;;;22.90;68.40;;;;;;4209243;28;20410;-51
2021/06/03 05:19:43;;;;;;;0.32;0.32;;;22.90;68.30;;;;;;4209162;28;20048;-53
2021/06/03 05:22:05;;;;;;;0.65;0.65;;;22.90;68.30;;;;;;4209244;28;20591;-55
2021/06/03 05:24:27;;;;;;;0.10;0.10;;;23.00;69.30;;;;;;4206848;28;20472;-50
2021/06/03 05:26:49;;;;;;;0.00;0.00;;;23.00;69.00;;;;;;4216958;27;20051;-49
2021/06/03 05:29:14;;;;;;;0.13;0.13;;;23.00;68.70;;;;;;4225300;28;20053;-47
2021/06/03 05:31:36;;;;;;;0.20;0.20;;;23.00;68.50;;;;;;4225751;27;20417;-53
2021/06/03 05:33:57;;;;;;;5.90;0.32;;;23.00;68.40;;;;;;4225945;28;20071;-50
2021/06/03 05:36:21;;;;;;;0.52;0.52;;;23.00;68.40;;;;;;4225561;27;20080;-49
2021/06/03 05:38:42;;;;;;;0.00;0.00;;;23.00;68.40;;;;;;4225959;28;20050;-50
2021/06/03 05:41:04;;;;;;;0.80;0.80;;;23.00;68.40;;;;;;4225864;27;20048;-49
2021/06/03 05:43:27;;;;;;;0.20;0.20;;;23.00;68.40;;;;;;4208797;28;20051;-47
2021/06/03 05:45:48;;;;;;;0.20;0.20;;;23.00;68.40;;;;;;4215942;28;20146;-50
2021/06/03 05:48:10;;;;;;;0.65;0.65;;;23.00;68.40;;;;;;4225767;27;20167;-53
2021/06/03 05:50:31;;;;;;;0.00;0.00;;;23.00;68.50;;;;;;4225429;28;20047;-49
2021/06/03 05:52:55;;;;;;;0.00;0.00;;;23.00;68.40;;;;;;4225492;27;20054;-48
2021/06/03 05:55:17;;;;;;;0.50;0.50;;;23.00;68.50;;;;;;4225434;27;20050;-48
2021/06/03 05:57:39;;;;;;;0.00;0.00;;;23.00;68.40;;;;;;4225652;27;20512;-47
2021/06/03 06:00:01;;;;;;;0.25;0.25;;;23.00;68.50;;;;;;4225240;27;20101;-48
2021/06/03 06:02:29;;;;;;;0.43;0.43;;;23.00;68.60;;;;;;4224882;27;20051;-46
2021/06/03 06:07:30;;;;;;;0.00;0.00;;;23.00;69.80;;;;;;4224899;28;20488;-48
2021/06/03 06:09:54;;;;;;;0.03;0.03;;;23.00;69.40;;;;;;4223242;28;20059;-48
2021/06/03 06:12:15;;;;;;;0.10;0.10;;;23.00;69.10;;;;;;4224754;28;20051;-49
2021/06/03 06:14:37;;;;;;;0.10;0.10;;;23.00;69.00;;;;;;4208290;28;20044;-47
2021/06/03 06:16:59;;;;;;;0.10;0.10;;;23.00;68.80;;;;;;4211309;28;20048;-46
2021/06/03 06:19:20;;;;;;;1.85;0.65;;;23.00;68.70;;;;;;4212480;27;20052;-47
2021/06/03 06:21:42;;;;;;;0.10;0.10;;;23.10;69.60;;;;;;4224952;28;20489;-47
2021/06/03 06:24:05;;;;;;;0.50;0.50;;;23.00;68.50;;;;;;4225060;27;20390;-46
2021/06/03 06:26:28;;;;;;;2.63;0.93;;;23.10;68.50;;;;;;4224923;27;20105;-47
2021/06/03 06:28:51;;;;;;;12.30;1.15;;;23.00;68.30;;;;;;4224632;28;20062;-50
2021/06/03 06:31:13;;;;;;;11.40;1.38;;;23.10;68.30;;;;;;4220869;27;20047;-47
2021/06/03 06:33:37;;;;;;;0.10;0.10;;;23.10;68.20;;;;;;4224077;27;20112;-48
2021/06/03 06:35:59;;;;;;;0.47;0.47;;;23.10;68.10;;;;;;4224513;27;20142;-47
2021/06/03 06:38:23;;;;;;;0.00;0.00;;;23.10;68.00;;;;;;4224836;27;20047;-52
2021/06/03 06:40:44;;;;;;;0.10;0.10;;;23.10;68.10;;;;;;4224972;28;20102;-48
2021/06/03 06:43:07;;;;;;;1.27;1.27;;;23.20;68.20;;;;;;4224343;27;20505;-48
2021/06/03 06:45:30;;;;;;;0.45;0.45;;;23.20;68.10;;;;;;4224367;28;22389;-47
2021/06/03 06:47:52;;;;;;;0.55;0.52;;;23.20;68.20;;;;;;4222113;28;20075;-49
2021/06/03 06:50:14;;;;;;;0.47;0.47;;;23.30;68.20;;;;;;4224215;28;20044;-47
2021/06/03 06:52:36;;;;;;;0.00;0.00;;;23.30;68.10;;;;;;4224638;27;20053;-52
2021/06/03 06:54:57;;;;;;;0.85;0.85;;;23.30;67.90;;;;;;4224225;28;20055;-47
2021/06/03 06:57:19;;;;;;;0.00;0.00;;;23.40;67.60;;;;;;4224194;28;20046;-48
2021/06/03 06:59:42;;;;;;;1.52;0.30;;;23.50;67.50;;;;;;4224560;28;20494;-49
2021/06/03 07:02:29;;;;;;;0.03;0.03;;;23.50;67.20;;;;;;4210392;28;20070;-50
2021/06/03 07:05:16;;;;;;;0.00;0.00;;;23.50;67.00;;;;;;4223913;28;20101;-52
2021/06/03 07:08:04;;;;;;;0.63;0.57;;;23.60;66.70;;;;;;4224002;28;20055;-47
2021/06/03 07:10:26;;;;;;;0.20;0.20;;;23.60;66.10;;;;;;4223410;28;20127;-46
2021/06/03 07:12:48;;;;;;;2.70;2.45;;;23.60;66.00;;;;;;4224462;28;20055;-47
2021/06/03 07:15:13;;;;;;;0.00;0.00;;;23.70;66.00;;;;;;4223715;28;20089;-49
2021/06/03 07:17:35;;;;;;;0.10;0.10;;;23.70;65.80;;;;;;4224115;28;20101;-47
2021/06/03 07:19:56;;;;;;;0.50;0.50;;;23.80;65.90;;;;;;4224046;28;20059;-46
2021/06/03 07:22:18;;;;;;;0.75;0.75;;;23.80;65.40;;;;;;4224194;28;20409;-52
2021/06/03 07:24:40;;;;;;;0.80;0.80;;;23.80;65.20;;;;;;4223994;28;20379;-50
2021/06/03 07:27:02;;;;;;;0.43;0.43;;;23.80;65.10;;;;;;4224045;28;20478;-46
2021/06/03 07:29:24;;;;;;;0.45;0.45;;;23.90;65.30;;;;;;4224282;28;20044;-49
2021/06/03 07:31:47;;;;;;;0.73;0.73;;;23.80;65.30;;;;;;4223217;28;20048;-48
2021/06/03 07:34:08;;;;;;;0.08;0.08;;;23.90;65.20;;;;;;4223583;28;20047;-52
2021/06/03 07:36:30;;;;;;;0.65;0.65;;;23.80;65.00;;;;;;4208640;28;20047;-49
2021/06/03 07:38:52;;;;;;;0.32;0.32;;;23.80;65.00;;;;;;4222606;28;20058;-47
2021/06/03 07:41:14;;;;;;;0.63;0.63;;;23.80;65.00;;;;;;4220107;28;20520;-49
2021/06/03 07:43:36;;;;;;;0.13;0.13;;;23.80;65.00;;;;;;4223978;28;20047;-47
2021/06/03 07:45:58;;;;;;;2.72;1.35;;;23.90;65.00;;;;;;4223672;28;20092;-48
2021/06/03 07:48:21;;;;;;;1.15;0.73;;;23.90;65.00;;;;;;4223749;28;20474;-48
2021/06/03 07:50:43;;;;;;;0.20;0.20;;;23.90;65.20;;;;;;4224568;28;20048;-47
2021/06/03 07:53:06;;;;;;;0.20;0.20;;;23.90;65.30;;;;;;4225474;28;20553;-50
2021/06/03 07:55:29;;;;;;;0.10;0.10;;;23.90;65.30;;;;;;4227300;28;20481;-46
2021/06/03 07:57:53;;;;;;;1.77;0.40;;;23.90;65.20;;;;;;4227405;28;20078;-47
2021/06/03 08:00:18;;;;;;;0.10;0.10;;;24.00;65.20;;;;;;4227053;28;20056;-47
2021/06/03 08:02:40;;;;;;;0.40;0.32;;;24.00;65.20;;;;;;4227235;27;20408;-48
2021/06/03 08:05:04;;;;;;;0.85;0.85;;;24.00;65.20;;;;;;4227125;28;20563;-48
2021/06/03 08:07:26;;;;;;;0.30;0.30;;;24.00;65.30;;;;;;4225442;27;20059;-51
2021/06/03 08:09:47;;;;;;;0.15;0.15;;;24.00;65.40;;;;;;4227158;27;20055;-50
2021/06/03 08:12:10;;;;;;;0.65;0.60;;;24.00;65.60;;;;;;4227080;27;20104;-47
2021/06/03 08:14:32;;;;;;;0.70;0.70;;;24.00;65.80;;;;;;4226768;27;20055;-48
2021/06/03 08:16:53;;;;;;;4.47;1.75;;;24.00;65.90;;;;;;4227224;27;20418;-49
2021/06/03 08:19:16;;;;;;;0.28;0.28;;;24.00;66.00;;;;;;4226880;27;20043;-47
2021/06/03 08:21:40;;;;;;;0.20;0.20;;;24.00;66.00;;;;;;4226630;27;20055;-49
2021/06/03 08:24:01;;;;;;;0.70;0.70;;;24.00;65.80;;;;;;4227037;27;20044;-48
2021/06/03 08:26:27;;;;;;;1.90;1.80;;;24.10;65.60;;;;;;4226853;27;20476;-48
2021/06/03 08:28:48;;;;;;;0.35;0.35;;;24.10;65.50;;;;;;4227074;27;20412;-48
2021/06/03 08:31:10;;;;;;;0.03;0.03;;;24.20;65.40;;;;;;4224953;27;20476;-49
2021/06/03 08:33:32;;;;;;;0.20;0.20;;;24.20;65.30;;;;;;4226369;27;20580;-47
2021/06/03 08:35:54;;;;;;;0.40;0.40;;;24.30;65.30;;;;;;4226418;27;20071;-50
2021/06/03 08:38:18;;;;;;;0.10;0.10;;;24.30;65.30;;;;;;4226442;28;20077;-50
2021/06/03 08:40:42;;;;;;;0.60;0.60;;;24.30;65.10;;;;;;4226424;27;20305;-48
2021/06/03 08:43:06;;;;;;;0.98;0.63;;;24.30;65.10;;;;;;4223714;27;20061;-47
2021/06/03 08:45:29;;;;;;;0.85;0.85;;;24.30;65.20;;;;;;4226232;27;20488;-46
2021/06/03 08:47:51;;;;;;;0.22;0.22;;;24.40;65.00;;;;;;4226682;27;20109;-50
2021/06/03 08:50:14;;;;;;;0.95;0.95;;;24.40;64.90;;;;;;4225505;27;20057;-52
2021/06/03 08:52:36;;;;;;;0.00;0.00;;;24.50;64.80;;;;;;4226612;28;20078;-46
2021/06/03 08:55:02;;;;;;;0.20;0.20;;;24.50;64.60;;;;;;4226364;27;20100;-49
2021/06/03 08:57:24;;;;;;;0.22;0.22;;;24.60;64.60;;;;;;4225715;27;20138;-51
2021/06/03 08:59:46;;;;;;;0.50;0.50;;;24.60;64.50;;;;;;4226045;27;20428;-50
2021/06/03 09:02:08;;;;;;;0.30;0.30;;;24.70;64.50;;;;;;4225826;28;20051;-49
2021/06/03 09:04:30;;;;;;;1.25;0.45;;;24.70;64.30;;;;;;4224528;28;20043;-49
2021/06/03 09:06:51;;;;;;;0.63;0.63;;;24.70;64.30;;;;;;4226175;27;20067;-51
2021/06/03 09:09:23;;;;;;;0.43;0.43;;;24.70;64.40;;;;;;4225651;27;20047;-52
2021/06/03 09:11:46;;;;;;;0.15;0.15;;;24.80;64.30;;;;;;4225515;27;20047;-47
2021/06/03 09:14:11;;;;;;;0.50;0.50;;;24.80;64.10;;;;;;4223348;27;20048;-50
2021/06/03 09:16:35;;;;;;;0.60;0.60;;;24.80;64.00;;;;;;4226102;28;20067;-49
2021/06/03 09:19:06;;;;;;;0.10;0.10;;;24.90;63.90;;;;;;4225652;27;20055;-50
2021/06/03 09:21:30;;;;;;;0.60;0.60;;;24.90;63.80;;;;;;4209067;28;20043;-49
2021/06/03 09:23:58;;;;;;;0.10;0.10;;;24.90;63.80;;;;;;4208868;28;20139;-50
2021/06/03 09:26:20;;;;;;;0.95;0.95;;;25.00;63.70;;;;;;4209268;28;20044;-50
2021/06/03 09:28:48;;;;;;;3.92;1.77;;;25.00;63.60;;;;;;4213119;28;20047;-48
2021/06/03 09:31:20;;;;;;;1.17;0.90;;;25.00;63.50;;;;;;4225723;27;20070;-52
2021/06/03 09:33:46;;;;;;;0.10;0.10;;;25.10;63.40;;;;;;4225552;27;20487;-50
2021/06/03 09:36:10;;;;;;;0.50;0.50;;;25.10;63.30;;;;;;4225433;27;20051;-49
2021/06/03 09:38:32;;;;;;;0.88;0.75;;;25.20;63.30;;;;;;4225444;27;20124;-48
2021/06/03 09:40:54;;;;;;;0.63;0.63;;;25.20;63.10;;;;;;4208967;28;20063;-47
2021/06/03 09:43:21;;;;;;;0.20;0.20;;;25.30;63.10;;;;;;4208485;28;20060;-50
2021/06/03 09:46:00;;;;;;;1.08;1.00;;;25.30;63.00;;;;;;4222374;27;20097;-51
2021/06/03 09:48:35;;;;;;;0.10;0.10;;;25.30;63.00;;;;;;4225111;27;20043;-51
2021/06/03 09:51:25;;;;;;;0.80;0.80;;;25.30;62.90;;;;;;4224440;27;20513;-48
2021/06/03 09:53:55;;;;;;;0.73;0.73;;;25.40;62.80;;;;;;4208452;28;20056;-48
2021/06/03 09:56:23;;;;;;;0.32;0.32;;;25.40;62.50;;;;;;4208603;28;20097;-49
2021/06/03 09:58:44;;;;;;;0.73;0.73;;;25.50;62.50;;;;;;4224902;27;20074;-52
2021/06/03 10:01:08;;;;;;;0.73;0.73;;;25.50;62.30;;;;;;4224796;27;20058;-51
2021/06/03 10:03:49;;;;;;;0.57;0.55;;;25.50;62.20;;;;;;4224512;28;20039;-52
2021/06/03 10:06:10;;;;;;;0.65;0.65;;;25.50;62.20;;;;;;4225220;28;20138;-53
2021/06/03 10:08:46;;;;;;;0.93;0.93;;;25.50;62.20;;;;;;4225278;27;20074;-52
2021/06/03 10:11:07;;;;;;;1.00;1.00;;;25.50;62.30;;;;;;4218973;28;20509;-51
2021/06/03 10:13:29;;;;;;;1.45;1.10;;;25.60;62.40;;;;;;4224489;28;20051;-53
2021/06/03 10:15:51;;;;;;;1.45;1.40;;;25.50;62.50;;;;;;4225190;27;20067;-48
2021/06/03 10:18:15;;;;;;;0.60;0.60;;;25.50;62.40;;;;;;4225243;27;20070;-53
2021/06/03 10:20:40;;;;;;;2.38;2.17;;;25.50;62.30;;;;;;4224613;27;20501;-50
2021/06/03 10:23:02;;;;;;;2.97;1.98;;;25.50;62.30;;;;;;4225036;28;20116;-54
2021/06/03 10:25:26;;;;;;;0.30;0.30;;;25.50;62.30;;;;;;4224768;28;20056;-49
2021/06/03 10:27:50;;;;;;;0.82;0.82;;;25.50;62.40;;;;;;4223310;28;20116;-50
2021/06/03 10:30:17;;;;;;;0.75;0.75;;;25.50;62.30;;;;;;4224653;28;20128;-52
2021/06/03 10:32:39;;;;;;;0.08;0.08;;;25.50;62.40;;;;;;4222610;28;20523;-49
2021/06/03 10:35:06;;;;;;;0.75;0.75;;;25.50;62.40;;;;;;4224627;28;20063;-49
2021/06/03 10:37:27;;;;;;;0.55;0.55;;;25.60;62.50;;;;;;4224854;28;20104;-52
2021/06/03 10:39:50;;;;;;;0.85;0.68;;;25.50;62.40;;;;;;4224546;27;20052;-45
2021/06/03 10:42:13;;;;;;;0.88;0.35;;;25.60;62.50;;;;;;4224867;28;20077;-55
2021/06/03 10:44:36;;;;;;;1.00;0.98;;;25.60;62.50;;;;;;4224699;28;20130;-46
2021/06/03 10:46:58;;;;;;;2.17;1.88;;;25.60;62.50;;;;;;4224582;27;20055;-50
2021/06/03 10:49:39;;;;;;;0.22;0.22;;;25.60;62.40;;;;;;4224148;27;20096;-47
2021/06/03 10:52:07;;;;;;;0.10;0.10;;;25.60;62.30;;;;;;4223551;28;20047;-53
2021/06/03 10:54:45;;;;;;;0.55;0.25;;;25.70;62.30;;;;;;4224783;28;20104;-49
2021/06/03 10:57:07;;;;;;;0.10;0.10;;;25.70;62.20;;;;;;4224714;28;20067;-52
2021/06/03 10:59:29;;;;;;;0.17;0.17;;;25.80;62.40;;;;;;4224364;28;20048;-52
2021/06/03 11:01:52;;;;;;;0.20;0.20;;;25.80;62.30;;;;;;4224539;28;20434;-52
2021/06/03 11:04:27;;;;;;;0.00;0.00;;;25.80;62.10;;;;;;4224404;28;20044;-46
2021/06/03 11:06:48;;;;;;;0.17;0.17;;;25.80;62.10;;;;;;4223746;28;20086;-48
2021/06/03 11:09:13;;;;;;;0.40;0.40;;;25.80;62.10;;;;;;4224548;28;20054;-48
2021/06/03 11:11:35;;;;;;;0.47;0.47;;;25.80;62.10;;;;;;4224739;28;20131;-46
2021/06/03 11:14:06;;;;;;;0.10;0.10;;;25.90;63.10;;;;;;4224510;28;20059;-49
2021/06/03 11:16:42;;;;;;;0.80;0.80;;;25.90;62.30;;;;;;4224835;28;20047;-46
2021/06/03 11:19:09;;;;;;;0.45;0.45;;;25.90;63.30;;;;;;4217202;28;20078;-48
2021/06/03 11:22:04;;;;;;;0.25;0.25;;;25.90;62.40;;;;;;4224264;28;20417;-47
2021/06/03 11:24:47;;;;;;;0.35;0.35;;;25.90;62.50;;;;;;4223526;28;20509;-46
2021/06/03 11:27:10;;;;;;;0.32;0.32;;;25.90;62.50;;;;;;4227275;28;20561;-49
2021/06/03 11:29:33;;;;;;;0.55;0.55;;;25.90;62.50;;;;;;4227985;27;20059;-49
2021/06/03 11:32:16;;;;;;;0.08;0.08;;;25.90;62.70;;;;;;4211129;28;20059;-46
2021/06/03 11:34:43;;;;;;;0.43;0.40;;;25.90;62.80;;;;;;4213278;28;20394;-49
2021/06/03 11:37:08;;;;;;;0.30;0.30;;;25.90;62.90;;;;;;4228108;27;20048;-47
2021/06/03 11:39:39;;;;;;;0.38;0.38;;;25.90;62.90;;;;;;4226791;27;20036;-46
2021/06/03 11:42:18;;;;;;;0.10;0.10;;;25.90;63.60;;;;;;4227505;27;20108;-48
2021/06/03 11:45:21;;;;;;;0.38;0.38;;;25.90;62.60;;;;;;4226999;27;20051;-47
2021/06/03 11:48:09;;;;;;;0.28;0.28;;;25.90;62.50;;;;;;4225677;27;20478;-47
2021/06/03 11:50:38;;;;;;;0.10;0.10;;;25.90;62.50;;;;;;4225825;27;20044;-48
2021/06/03 11:53:11;;;;;;;0.20;0.20;;;25.90;62.40;;;;;;4227768;27;20074;-48
2021/06/03 11:55:35;;;;;;;0.10;0.10;;;25.90;62.50;;;;;;4227577;28;20051;-48
2021/06/03 11:58:21;;;;;;;0.70;0.70;;;26.00;62.50;;;;;;4227548;28;20154;-48
2021/06/03 12:00:45;;;;;;;0.55;0.32;;;25.90;62.50;;;;;;4227042;27;20413;-51
2021/06/03 12:03:27;;;;;;;0.00;0.00;;;26.00;62.50;;;;;;4227425;27;20047;-48
2021/06/03 12:05:48;;;;;;;0.47;0.47;;;25.90;62.40;;;;;;4225102;27;20043;-50
2021/06/03 12:08:31;;;;;;;0.22;0.22;;;26.00;62.60;;;;;;4227072;27;20052;-52
2021/06/03 12:10:53;;;;;;;0.45;0.32;;;25.90;62.50;;;;;;4218754;28;20484;-51
2021/06/03 12:13:17;;;;;;;0.35;0.35;;;25.90;62.60;;;;;;4227290;27;20047;-51
2021/06/03 12:15:42;;;;;;;1.17;0.95;;;25.90;62.70;;;;;;4225430;28;20050;-50
2021/06/03 12:18:04;;;;;;;0.00;0.00;;;25.90;62.70;;;;;;4227213;27;20052;-47
2021/06/03 12:20:27;;;;;;;0.00;0.00;;;25.90;62.70;;;;;;4225806;27;20055;-46
2021/06/03 12:22:49;;;;;;;0.00;0.00;;;25.90;62.70;;;;;;4226996;27;20421;-46
2021/06/03 12:25:11;;;;;;;0.15;0.15;;;25.90;63.60;;;;;;4226650;28;20459;-45
2021/06/03 12:27:35;;;;;;;0.30;0.30;;;25.90;62.80;;;;;;4226853;27;20055;-48
2021/06/03 12:30:12;;;;;;;0.35;0.35;;;25.90;62.80;;;;;;4226192;28;20055;-49
2021/06/03 12:32:34;;;;;;;0.00;0.00;;;25.90;62.80;;;;;;4226821;27;20126;-50
2021/06/03 12:35:00;;;;;;;0.50;0.50;;;25.90;62.90;;;;;;4225024;27;20051;-49
2021/06/03 12:37:28;;;;;;;0.10;0.10;;;25.90;62.90;;;;;;4226579;27;20050;-49